Pierre, SD (57501)

10:26 AM CST on February 11, 2016 (GMT -0600)
2 miles north of airport | | Change Station
CLOSE
Current Station
Personal Weather Station
Location: Pierre, SD
Elevation: 1818 ft
Nearby Weather Stations

Elev 1818 ft 44.41 °N, 100.30 °W | Updated 1 minute ago

Overcast
Overcast
26.0 °F
Feels Like 16 °F
N
10.0
Wind Variable Wind from SSE
Gusts 13.0 mph

Today
High -- | Low -- °F
--% Chance of Precip.
Yesterday
High -- | Low -- °F
Precip. -- in
Pressure 30.10 in
Visibility 10.0 miles
Clouds Scattered Clouds 800 ft
Overcast 2000 ft
Windchill 16 °F
Dew Point 25 °F
Humidity 95%
Rainfall 0.00 in
Snow Depth Not available.
7:47 AM 6:03 PM
Waxing Crescent, 13% visible
SPECI KPIR 111614Z AUTO 13010KT 10SM SCT008 OVC020 M03/M06 A3010 RMK AO2 T10331056
Pressure 30.10 in
Visibility 10.0 miles
Clouds Scattered Clouds 800 ft
Overcast 2000 ft
Windchill 16 °F
Dew Point 25 °F
Humidity 95%
Rainfall 0.00 in
Snow Depth Not available.
7:47 AM 6:03 PM
Waxing Crescent, 13% visible
SPECI KPIR 111614Z AUTO 13010KT 10SM SCT008 OVC020 M03/M06 A3010 RMK AO2 T10331056

10-Day Weather Forecast

Almanac

Astronomy

Feb. 11, 2016 Rise Set
Actual Time
Civil Twilight
Nautical Twilight
Astronomical Twilight
Moon
Length of Visible Light
Length of Day
Tomorrow will be .
, % of the Moon is Illuminated

Today's Extremes

State Highs State Lows

Community

WunderPhotos

Upload Photos

1,892,094 photos uploaded!

WunderBlog® & News

Nearby

Air Quality

  Air Quality AQ Index Pollutant
Not available.

Snow Depth

Station Depth Elevation

Earthquake Activity

City Distance Mag. Time & Date
Minimum magnitude displayed is 2.5.

Coastal Water Temperatures

Place Temperature

Stations

Nearby Weather Stations

Station Location Temp. Windchill Dew Point Humidity Wind Precip. Elev Updated Type
                   

Watches & Warnings

There are currently no watches in effect.